sensor_id;sensor_type;location;lat;lon;timestamp;pressure;altitude;pressure_sealevel;temperature
71081;BMP180;58740;50.672;18.690;2022-09-09T00:07:08;98643.40;;;19.50
71081;BMP180;58740;50.672;18.690;2022-09-09T00:09:50;98645.20;;;19.40
71081;BMP180;58740;50.672;18.690;2022-09-09T00:15:46;98648.40;;;19.40
71081;BMP180;58740;50.672;18.690;2022-09-09T00:19:07;98646.00;;;19.30
71081;BMP180;58740;50.672;18.690;2022-09-09T00:22:18;98646.00;;;19.30
71081;BMP180;58740;50.672;18.690;2022-09-09T00:24:55;98649.80;;;19.30
71081;BMP180;58740;50.672;18.690;2022-09-09T00:27:48;98652.20;;;19.30
71081;BMP180;58740;50.672;18.690;2022-09-09T00:30:21;98649.80;;;19.20
71081;BMP180;58740;50.672;18.690;2022-09-09T00:32:58;98650.40;;;19.20
71081;BMP180;58740;50.672;18.690;2022-09-09T00:35:32;98649.20;;;19.20
71081;BMP180;58740;50.672;18.690;2022-09-09T00:38:11;98644.80;;;19.20
71081;BMP180;58740;50.672;18.690;2022-09-09T00:41:22;98647.00;;;19.20
71081;BMP180;58740;50.672;18.690;2022-09-09T00:44:02;98645.80;;;19.10
71081;BMP180;58740;50.672;18.690;2022-09-09T00:46:56;98644.60;;;19.10
71081;BMP180;58740;50.672;18.690;2022-09-09T00:50:00;98643.80;;;19.10
71081;BMP180;58740;50.672;18.690;2022-09-09T00:53:35;98647.60;;;19.10
71081;BMP180;58740;50.672;18.690;2022-09-09T00:56:03;98652.00;;;19.10
71081;BMP180;58740;50.672;18.690;2022-09-09T00:58:32;98655.80;;;19.00
71081;BMP180;58740;50.672;18.690;2022-09-09T01:01:12;98651.20;;;19.00
71081;BMP180;58740;50.672;18.690;2022-09-09T01:03:54;98653.20;;;19.00
71081;BMP180;58740;50.672;18.690;2022-09-09T01:06:35;98656.80;;;19.00
71081;BMP180;58740;50.672;18.690;2022-09-09T01:09:38;98664.40;;;19.00
71081;BMP180;58740;50.672;18.690;2022-09-09T01:12:25;98668.00;;;19.00
71081;BMP180;58740;50.672;18.690;2022-09-09T01:15:09;98673.40;;;19.00
71081;BMP180;58740;50.672;18.690;2022-09-09T01:18:17;98674.80;;;19.00
71081;BMP180;58740;50.672;18.690;2022-09-09T01:21:14;98669.40;;;19.00
71081;BMP180;58740;50.672;18.690;2022-09-09T01:24:22;98677.00;;;19.00
71081;BMP180;58740;50.672;18.690;2022-09-09T01:26:56;98675.20;;;19.00
71081;BMP180;58740;50.672;18.690;2022-09-09T01:29:26;98681.20;;;19.00
71081;BMP180;58740;50.672;18.690;2022-09-09T01:31:58;98682.60;;;18.94
71081;BMP180;58740;50.672;18.690;2022-09-09T01:34:31;98688.00;;;18.98
71081;BMP180;58740;50.672;18.690;2022-09-09T01:37:09;98689.40;;;18.98
71081;BMP180;58740;50.672;18.690;2022-09-09T01:39:42;98690.00;;;18.98
71081;BMP180;58740;50.672;18.690;2022-09-09T01:42:15;98688.40;;;18.94
71081;BMP180;58740;50.672;18.690;2022-09-09T01:44:43;98688.20;;;18.92
71081;BMP180;58740;50.672;18.690;2022-09-09T01:47:11;98691.00;;;19.00
71081;BMP180;58740;50.672;18.690;2022-09-09T01:49:38;98691.20;;;19.00
71081;BMP180;58740;50.672;18.690;2022-09-09T01:52:06;98690.40;;;19.00
71081;BMP180;58740;50.672;18.690;2022-09-09T01:54:35;98696.60;;;19.00
71081;BMP180;58740;50.672;18.690;2022-09-09T01:57:17;98696.00;;;19.08
71081;BMP180;58740;50.672;18.690;2022-09-09T02:00:09;98698.00;;;19.10
71081;BMP180;58740;50.672;18.690;2022-09-09T02:03:05;98699.20;;;19.10
71081;BMP180;58740;50.672;18.690;2022-09-09T02:05:47;98701.40;;;19.04
71081;BMP180;58740;50.672;18.690;2022-09-09T02:08:26;98702.40;;;19.00
71081;BMP180;58740;50.672;18.690;2022-09-09T02:11:19;98702.60;;;19.02
71081;BMP180;58740;50.672;18.690;2022-09-09T02:13:53;98706.80;;;19.00
71081;BMP180;58740;50.672;18.690;2022-09-09T02:17:03;98707.00;;;19.00
71081;BMP180;58740;50.672;18.690;2022-09-09T02:19:50;98707.60;;;19.00
71081;BMP180;58740;50.672;18.690;2022-09-09T02:22:22;98706.80;;;19.04
71081;BMP180;58740;50.672;18.690;2022-09-09T02:24:55;98705.80;;;19.00
71081;BMP180;58740;50.672;18.690;2022-09-09T02:27:24;98709.20;;;19.00
71081;BMP180;58740;50.672;18.690;2022-09-09T02:29:56;98713.20;;;19.00
71081;BMP180;58740;50.672;18.690;2022-09-09T02:32:29;98714.00;;;19.00
71081;BMP180;58740;50.672;18.690;2022-09-09T02:35:06;98719.20;;;19.00
71081;BMP180;58740;50.672;18.690;2022-09-09T02:37:40;98723.20;;;18.98
71081;BMP180;58740;50.672;18.690;2022-09-09T02:40:11;98723.60;;;18.92
71081;BMP180;58740;50.672;18.690;2022-09-09T02:42:43;98726.60;;;18.90
71081;BMP180;58740;50.672;18.690;2022-09-09T02:45:18;98728.60;;;18.90
71081;BMP180;58740;50.672;18.690;2022-09-09T02:48:12;98726.40;;;18.84
71081;BMP180;58740;50.672;18.690;2022-09-09T02:51:12;98732.00;;;18.80
71081;BMP180;58740;50.672;18.690;2022-09-09T02:56:53;98740.20;;;18.70
71081;BMP180;58740;50.672;18.690;2022-09-09T02:59:22;98735.00;;;18.70
71081;BMP180;58740;50.672;18.690;2022-09-09T03:01:52;98729.60;;;18.60
71081;BMP180;58740;50.672;18.690;2022-09-09T03:04:20;98736.00;;;18.60
71081;BMP180;58740;50.672;18.690;2022-09-09T03:06:48;98740.60;;;18.50
71081;BMP180;58740;50.672;18.690;2022-09-09T03:09:16;98736.60;;;18.50
71081;BMP180;58740;50.672;18.690;2022-09-09T03:11:44;98741.40;;;18.40
71081;BMP180;58740;50.672;18.690;2022-09-09T03:14:12;98742.80;;;18.40
71081;BMP180;58740;50.672;18.690;2022-09-09T03:16:40;98743.20;;;18.32
71081;BMP180;58740;50.672;18.690;2022-09-09T03:19:09;98741.20;;;18.30
71081;BMP180;58740;50.672;18.690;2022-09-09T03:21:37;98742.00;;;18.30
71081;BMP180;58740;50.672;18.690;2022-09-09T03:24:05;98738.00;;;18.30
71081;BMP180;58740;50.672;18.690;2022-09-09T03:26:33;98742.40;;;18.20
71081;BMP180;58740;50.672;18.690;2022-09-09T03:29:01;98749.40;;;18.20
71081;BMP180;58740;50.672;18.690;2022-09-09T03:31:29;98753.60;;;18.20
71081;BMP180;58740;50.672;18.690;2022-09-09T03:33:57;98749.80;;;18.20
71081;BMP180;58740;50.672;18.690;2022-09-09T03:36:26;98750.80;;;18.10
71081;BMP180;58740;50.672;18.690;2022-09-09T03:38:54;98749.80;;;18.10
71081;BMP180;58740;50.672;18.690;2022-09-09T03:41:23;98749.20;;;18.10
71081;BMP180;58740;50.672;18.690;2022-09-09T03:43:51;98752.80;;;18.10
71081;BMP180;58740;50.672;18.690;2022-09-09T03:46:22;98748.60;;;18.00
71081;BMP180;58740;50.672;18.690;2022-09-09T03:48:51;98753.00;;;18.00
71081;BMP180;58740;50.672;18.690;2022-09-09T03:51:21;98752.00;;;17.90
71081;BMP180;58740;50.672;18.690;2022-09-09T03:53:49;98752.80;;;17.90
71081;BMP180;58740;50.672;18.690;2022-09-09T03:56:17;98753.40;;;17.90
71081;BMP180;58740;50.672;18.690;2022-09-09T03:58:45;98751.00;;;17.90
71081;BMP180;58740;50.672;18.690;2022-09-09T04:01:14;98751.00;;;17.80
71081;BMP180;58740;50.672;18.690;2022-09-09T04:03:42;98754.60;;;17.80
71081;BMP180;58740;50.672;18.690;2022-09-09T04:06:12;98759.80;;;17.80
71081;BMP180;58740;50.672;18.690;2022-09-09T04:08:41;98763.60;;;17.70
71081;BMP180;58740;50.672;18.690;2022-09-09T04:11:09;98760.40;;;17.70
71081;BMP180;58740;50.672;18.690;2022-09-09T04:13:38;98762.00;;;17.60
71081;BMP180;58740;50.672;18.690;2022-09-09T04:16:10;98760.20;;;17.60
71081;BMP180;58740;50.672;18.690;2022-09-09T04:18:39;98762.20;;;17.60
71081;BMP180;58740;50.672;18.690;2022-09-09T04:21:09;98763.00;;;17.50
71081;BMP180;58740;50.672;18.690;2022-09-09T04:23:38;98766.00;;;17.50
71081;BMP180;58740;50.672;18.690;2022-09-09T04:26:06;98766.00;;;17.44
71081;BMP180;58740;50.672;18.690;2022-09-09T04:28:36;98760.40;;;17.40
71081;BMP180;58740;50.672;18.690;2022-09-09T04:31:12;98766.40;;;17.40
71081;BMP180;58740;50.672;18.690;2022-09-09T04:33:42;98766.60;;;17.40
71081;BMP180;58740;50.672;18.690;2022-09-09T04:36:10;98764.20;;;17.40
71081;BMP180;58740;50.672;18.690;2022-09-09T04:38:38;98763.60;;;17.40
71081;BMP180;58740;50.672;18.690;2022-09-09T04:41:06;98765.60;;;17.40
71081;BMP180;58740;50.672;18.690;2022-09-09T04:43:34;98768.00;;;17.40
71081;BMP180;58740;50.672;18.690;2022-09-09T04:46:03;98761.20;;;17.40
71081;BMP180;58740;50.672;18.690;2022-09-09T04:48:32;98764.80;;;17.40
71081;BMP180;58740;50.672;18.690;2022-09-09T04:51:06;98762.00;;;17.40
71081;BMP180;58740;50.672;18.690;2022-09-09T04:53:34;98767.00;;;17.40
71081;BMP180;58740;50.672;18.690;2022-09-09T04:56:12;98766.20;;;17.40
71081;BMP180;58740;50.672;18.690;2022-09-09T04:58:41;98765.20;;;17.40
71081;BMP180;58740;50.672;18.690;2022-09-09T05:01:17;98771.40;;;17.50
71081;BMP180;58740;50.672;18.690;2022-09-09T05:03:46;98777.60;;;17.50
71081;BMP180;58740;50.672;18.690;2022-09-09T05:06:17;98777.60;;;17.50
71081;BMP180;58740;50.672;18.690;2022-09-09T05:08:46;98783.60;;;17.50
71081;BMP180;58740;50.672;18.690;2022-09-09T05:11:22;98784.00;;;17.56
71081;BMP180;58740;50.672;18.690;2022-09-09T05:13:52;98784.20;;;17.60
71081;BMP180;58740;50.672;18.690;2022-09-09T05:16:21;98791.00;;;17.60
71081;BMP180;58740;50.672;18.690;2022-09-09T05:18:50;98789.20;;;17.60
71081;BMP180;58740;50.672;18.690;2022-09-09T05:21:21;98791.80;;;17.60
71081;BMP180;58740;50.672;18.690;2022-09-09T05:23:50;98791.60;;;17.70
71081;BMP180;58740;50.672;18.690;2022-09-09T05:26:21;98797.60;;;17.70
71081;BMP180;58740;50.672;18.690;2022-09-09T05:28:49;98803.40;;;17.70
71081;BMP180;58740;50.672;18.690;2022-09-09T05:31:18;98806.40;;;17.80
71081;BMP180;58740;50.672;18.690;2022-09-09T05:33:48;98802.60;;;17.80
71081;BMP180;58740;50.672;18.690;2022-09-09T05:36:20;98809.40;;;17.84
71081;BMP180;58740;50.672;18.690;2022-09-09T05:38:48;98805.80;;;17.90
71081;BMP180;58740;50.672;18.690;2022-09-09T05:41:17;98811.00;;;17.96
71081;BMP180;58740;50.672;18.690;2022-09-09T05:43:46;98808.00;;;18.00
71081;BMP180;58740;50.672;18.690;2022-09-09T05:46:20;98807.80;;;18.10
71081;BMP180;58740;50.672;18.690;2022-09-09T05:48:51;98803.00;;;18.20
71081;BMP180;58740;50.672;18.690;2022-09-09T05:51:26;98803.80;;;18.30
71081;BMP180;58740;50.672;18.690;2022-09-09T05:53:54;98800.20;;;18.40
71081;BMP180;58740;50.672;18.690;2022-09-09T05:56:29;98801.40;;;18.50
71081;BMP180;58740;50.672;18.690;2022-09-09T05:58:56;98804.20;;;18.60
71081;BMP180;58740;50.672;18.690;2022-09-09T06:01:33;98803.80;;;18.70
71081;BMP180;58740;50.672;18.690;2022-09-09T06:04:02;98808.00;;;18.74
71081;BMP180;58740;50.672;18.690;2022-09-09T06:06:35;98810.00;;;18.80
71081;BMP180;58740;50.672;18.690;2022-09-09T06:09:07;98812.60;;;18.90
71081;BMP180;58740;50.672;18.690;2022-09-09T06:11:39;98809.20;;;18.90
71081;BMP180;58740;50.672;18.690;2022-09-09T06:14:07;98803.60;;;19.00
71081;BMP180;58740;50.672;18.690;2022-09-09T06:16:35;98797.60;;;19.00
71081;BMP180;58740;50.672;18.690;2022-09-09T06:19:05;98804.80;;;19.10
71081;BMP180;58740;50.672;18.690;2022-09-09T06:21:35;98801.80;;;19.10
71081;BMP180;58740;50.672;18.690;2022-09-09T06:24:05;98802.20;;;19.20
71081;BMP180;58740;50.672;18.690;2022-09-09T06:26:37;98808.20;;;19.20
71081;BMP180;58740;50.672;18.690;2022-09-09T06:29:09;98806.00;;;19.30
71081;BMP180;58740;50.672;18.690;2022-09-09T06:31:37;98805.80;;;19.30
71081;BMP180;58740;50.672;18.690;2022-09-09T06:34:08;98807.20;;;19.38
71081;BMP180;58740;50.672;18.690;2022-09-09T06:36:38;98806.60;;;19.40
71081;BMP180;58740;50.672;18.690;2022-09-09T06:39:07;98807.20;;;19.50
71081;BMP180;58740;50.672;18.690;2022-09-09T06:41:42;98807.80;;;19.50
71081;BMP180;58740;50.672;18.690;2022-09-09T06:44:10;98806.00;;;19.60
71081;BMP180;58740;50.672;18.690;2022-09-09T06:46:39;98807.40;;;19.68
71081;BMP180;58740;50.672;18.690;2022-09-09T06:49:08;98806.60;;;19.70
71081;BMP180;58740;50.672;18.690;2022-09-09T06:51:38;98807.40;;;19.74
71081;BMP180;58740;50.672;18.690;2022-09-09T06:54:12;98803.60;;;19.80
71081;BMP180;58740;50.672;18.690;2022-09-09T06:56:41;98798.40;;;19.80
71081;BMP180;58740;50.672;18.690;2022-09-09T06:59:11;98796.20;;;19.80
71081;BMP180;58740;50.672;18.690;2022-09-09T07:01:42;98795.20;;;19.88
71081;BMP180;58740;50.672;18.690;2022-09-09T07:04:22;98791.60;;;19.90
71081;BMP180;58740;50.672;18.690;2022-09-09T07:06:49;98791.20;;;19.98
71081;BMP180;58740;50.672;18.690;2022-09-09T07:09:17;98794.00;;;20.00
71081;BMP180;58740;50.672;18.690;2022-09-09T07:11:48;98798.80;;;20.00
71081;BMP180;58740;50.672;18.690;2022-09-09T07:14:16;98796.80;;;20.10
71081;BMP180;58740;50.672;18.690;2022-09-09T07:16:45;98786.40;;;20.16
71081;BMP180;58740;50.672;18.690;2022-09-09T07:19:14;98782.20;;;20.20
71081;BMP180;58740;50.672;18.690;2022-09-09T07:21:42;98791.20;;;20.30
71081;BMP180;58740;50.672;18.690;2022-09-09T07:24:11;98793.20;;;20.40
71081;BMP180;58740;50.672;18.690;2022-09-09T07:26:40;98788.40;;;20.40
71081;BMP180;58740;50.672;18.690;2022-09-09T07:29:08;98792.60;;;20.50
71081;BMP180;58740;50.672;18.690;2022-09-09T07:31:38;98789.20;;;20.54
71081;BMP180;58740;50.672;18.690;2022-09-09T07:34:07;98786.00;;;20.60
71081;BMP180;58740;50.672;18.690;2022-09-09T07:36:38;98784.80;;;20.68
71081;BMP180;58740;50.672;18.690;2022-09-09T07:39:13;98794.00;;;20.70
71081;BMP180;58740;50.672;18.690;2022-09-09T07:41:44;98794.40;;;20.80
71081;BMP180;58740;50.672;18.690;2022-09-09T07:44:16;98791.60;;;20.80
71081;BMP180;58740;50.672;18.690;2022-09-09T07:46:44;98796.40;;;20.90
71081;BMP180;58740;50.672;18.690;2022-09-09T07:49:14;98799.60;;;20.90
71081;BMP180;58740;50.672;18.690;2022-09-09T07:51:45;98801.60;;;21.00
71081;BMP180;58740;50.672;18.690;2022-09-09T07:54:17;98799.80;;;21.04
71081;BMP180;58740;50.672;18.690;2022-09-09T07:56:47;98801.40;;;21.10
71081;BMP180;58740;50.672;18.690;2022-09-09T07:59:17;98804.20;;;21.20
71081;BMP180;58740;50.672;18.690;2022-09-09T08:01:50;98801.00;;;21.22
71081;BMP180;58740;50.672;18.690;2022-09-09T08:04:24;98799.00;;;21.30
71081;BMP180;58740;50.672;18.690;2022-09-09T08:06:56;98800.00;;;21.38
71081;BMP180;58740;50.672;18.690;2022-09-09T08:09:26;98800.60;;;21.40
71081;BMP180;58740;50.672;18.690;2022-09-09T08:11:57;98809.40;;;21.40
71081;BMP180;58740;50.672;18.690;2022-09-09T08:14:25;98804.80;;;21.50
71081;BMP180;58740;50.672;18.690;2022-09-09T08:16:53;98809.20;;;21.50
71081;BMP180;58740;50.672;18.690;2022-09-09T08:19:21;98808.00;;;21.50
71081;BMP180;58740;50.672;18.690;2022-09-09T08:21:50;98811.20;;;21.60
71081;BMP180;58740;50.672;18.690;2022-09-09T08:24:18;98806.80;;;21.60
71081;BMP180;58740;50.672;18.690;2022-09-09T08:26:48;98812.60;;;21.70
71081;BMP180;58740;50.672;18.690;2022-09-09T08:29:18;98813.00;;;21.70
71081;BMP180;58740;50.672;18.690;2022-09-09T08:31:49;98811.00;;;21.70
71081;BMP180;58740;50.672;18.690;2022-09-09T08:34:18;98813.20;;;21.70
71081;BMP180;58740;50.672;18.690;2022-09-09T08:36:50;98809.80;;;21.60
71081;BMP180;58740;50.672;18.690;2022-09-09T08:39:21;98814.60;;;21.60
71081;BMP180;58740;50.672;18.690;2022-09-09T08:42:25;98814.60;;;21.60
71081;BMP180;58740;50.672;18.690;2022-09-09T08:45:20;98818.40;;;21.52
71081;BMP180;58740;50.672;18.690;2022-09-09T08:48:22;98815.20;;;21.50
71081;BMP180;58740;50.672;18.690;2022-09-09T08:50:52;98817.00;;;21.50
71081;BMP180;58740;50.672;18.690;2022-09-09T08:53:35;98816.20;;;21.50
71081;BMP180;58740;50.672;18.690;2022-09-09T08:56:14;98817.20;;;21.46
71081;BMP180;58740;50.672;18.690;2022-09-09T08:58:51;98812.60;;;21.50
71081;BMP180;58740;50.672;18.690;2022-09-09T09:01:52;98815.60;;;21.50
71081;BMP180;58740;50.672;18.690;2022-09-09T09:04:45;98817.20;;;21.60
71081;BMP180;58740;50.672;18.690;2022-09-09T09:13:15;98833.80;;;21.70
71081;BMP180;58740;50.672;18.690;2022-09-09T09:15:50;98830.40;;;21.64
71081;BMP180;58740;50.672;18.690;2022-09-09T09:18:20;98829.00;;;21.60
71081;BMP180;58740;50.672;18.690;2022-09-09T09:21:08;98829.20;;;21.60
71081;BMP180;58740;50.672;18.690;2022-09-09T09:23:57;98824.00;;;21.60
71081;BMP180;58740;50.672;18.690;2022-09-09T09:26:35;98822.60;;;21.60
71081;BMP180;58740;50.672;18.690;2022-09-09T09:29:16;98824.00;;;21.56
71081;BMP180;58740;50.672;18.690;2022-09-09T09:31:52;98823.00;;;21.50
71081;BMP180;58740;50.672;18.690;2022-09-09T09:34:23;98825.40;;;21.50
71081;BMP180;58740;50.672;18.690;2022-09-09T09:36:57;98826.60;;;21.48
71081;BMP180;58740;50.672;18.690;2022-09-09T09:39:32;98829.80;;;21.40
71081;BMP180;58740;50.672;18.690;2022-09-09T09:42:24;98830.40;;;21.40
71081;BMP180;58740;50.672;18.690;2022-09-09T09:44:52;98826.40;;;21.40
71081;BMP180;58740;50.672;18.690;2022-09-09T09:47:22;98828.00;;;21.40
71081;BMP180;58740;50.672;18.690;2022-09-09T09:49:59;98824.80;;;21.40
71081;BMP180;58740;50.672;18.690;2022-09-09T09:52:30;98825.40;;;21.40
71081;BMP180;58740;50.672;18.690;2022-09-09T09:54:59;98826.40;;;21.40
71081;BMP180;58740;50.672;18.690;2022-09-09T09:57:34;98829.40;;;21.40
71081;BMP180;58740;50.672;18.690;2022-09-09T10:00:20;98833.60;;;21.40
71081;BMP180;58740;50.672;18.690;2022-09-09T10:02:49;98826.00;;;21.40
71081;BMP180;58740;50.672;18.690;2022-09-09T10:05:22;98829.40;;;21.42
71081;BMP180;58740;50.672;18.690;2022-09-09T10:08:05;98830.80;;;21.50
71081;BMP180;58740;50.672;18.690;2022-09-09T10:10:45;98831.60;;;21.60
71081;BMP180;58740;50.672;18.690;2022-09-09T10:19:04;98818.60;;;21.50
71081;BMP180;58740;50.672;18.690;2022-09-09T10:24:47;98828.00;;;21.50
71081;BMP180;58740;50.672;18.690;2022-09-09T10:27:55;98834.40;;;21.50
71081;BMP180;58740;50.672;18.690;2022-09-09T10:33:51;98837.40;;;21.60
71081;BMP180;58740;50.672;18.690;2022-09-09T10:36:26;98841.60;;;21.60
71081;BMP180;58740;50.672;18.690;2022-09-09T10:39:28;98846.40;;;21.70
71081;BMP180;58740;50.672;18.690;2022-09-09T10:42:06;98844.80;;;21.70
71081;BMP180;58740;50.672;18.690;2022-09-09T10:45:19;98845.00;;;21.74
71081;BMP180;58740;50.672;18.690;2022-09-09T10:51:26;98848.80;;;21.80
71081;BMP180;58740;50.672;18.690;2022-09-09T10:54:36;98840.00;;;21.80
71081;BMP180;58740;50.672;18.690;2022-09-09T10:57:38;98843.00;;;21.80
71081;BMP180;58740;50.672;18.690;2022-09-09T11:00:18;98845.60;;;21.80
71081;BMP180;58740;50.672;18.690;2022-09-09T11:03:00;98836.40;;;21.80
71081;BMP180;58740;50.672;18.690;2022-09-09T11:05:43;98838.20;;;21.80
71081;BMP180;58740;50.672;18.690;2022-09-09T11:08:25;98840.40;;;21.70
71081;BMP180;58740;50.672;18.690;2022-09-09T11:11:25;98841.00;;;21.70
71081;BMP180;58740;50.672;18.690;2022-09-09T11:14:10;98838.20;;;21.62
71081;BMP180;58740;50.672;18.690;2022-09-09T11:19:39;98846.20;;;21.60
71081;BMP180;58740;50.672;18.690;2022-09-09T11:22:36;98850.60;;;21.60
71081;BMP180;58740;50.672;18.690;2022-09-09T11:25:17;98853.80;;;21.60
71081;BMP180;58740;50.672;18.690;2022-09-09T11:33:58;98849.00;;;21.70
71081;BMP180;58740;50.672;18.690;2022-09-09T11:37:11;98851.40;;;21.80
71081;BMP180;58740;50.672;18.690;2022-09-09T11:40:28;98843.00;;;21.80
71081;BMP180;58740;50.672;18.690;2022-09-09T11:43:23;98840.60;;;21.80
71081;BMP180;58740;50.672;18.690;2022-09-09T11:45:57;98845.40;;;21.82
71081;BMP180;58740;50.672;18.690;2022-09-09T11:48:43;98847.80;;;21.90
71081;BMP180;58740;50.672;18.690;2022-09-09T11:51:27;98847.80;;;22.00
71081;BMP180;58740;50.672;18.690;2022-09-09T11:53:58;98847.60;;;22.00
71081;BMP180;58740;50.672;18.690;2022-09-09T11:59:04;98847.60;;;22.20
71081;BMP180;58740;50.672;18.690;2022-09-09T12:06:43;98841.60;;;22.22
71081;BMP180;58740;50.672;18.690;2022-09-09T12:09:33;98840.40;;;22.20
71081;BMP180;58740;50.672;18.690;2022-09-09T12:17:21;98839.40;;;22.10
71081;BMP180;58740;50.672;18.690;2022-09-09T12:20:15;98838.60;;;22.04
71081;BMP180;58740;50.672;18.690;2022-09-09T12:26:16;98828.20;;;21.96
71081;BMP180;58740;50.672;18.690;2022-09-09T12:29:25;98828.40;;;21.90
71081;BMP180;58740;50.672;18.690;2022-09-09T12:32:25;98832.60;;;21.90
71081;BMP180;58740;50.672;18.690;2022-09-09T12:37:56;98834.00;;;22.00
71081;BMP180;58740;50.672;18.690;2022-09-09T12:40:29;98830.40;;;22.10
71081;BMP180;58740;50.672;18.690;2022-09-09T12:42:59;98824.80;;;22.10
71081;BMP180;58740;50.672;18.690;2022-09-09T12:45:32;98837.00;;;22.10
71081;BMP180;58740;50.672;18.690;2022-09-09T12:48:20;98838.80;;;22.10
71081;BMP180;58740;50.672;18.690;2022-09-09T12:50:51;98841.00;;;22.10
71081;BMP180;58740;50.672;18.690;2022-09-09T12:53:32;98838.40;;;22.10
71081;BMP180;58740;50.672;18.690;2022-09-09T12:56:06;98840.20;;;22.00
71081;BMP180;58740;50.672;18.690;2022-09-09T12:58:38;98839.20;;;22.00
71081;BMP180;58740;50.672;18.690;2022-09-09T13:01:25;98842.40;;;22.00
71081;BMP180;58740;50.672;18.690;2022-09-09T13:03:54;98838.80;;;22.00
71081;BMP180;58740;50.672;18.690;2022-09-09T13:06:28;98841.00;;;22.00
71081;BMP180;58740;50.672;18.690;2022-09-09T13:08:59;98838.00;;;22.10
71081;BMP180;58740;50.672;18.690;2022-09-09T13:11:41;98837.60;;;22.10
71081;BMP180;58740;50.672;18.690;2022-09-09T13:14:28;98833.80;;;22.10
71081;BMP180;58740;50.672;18.690;2022-09-09T13:17:03;98832.60;;;22.12
71081;BMP180;58740;50.672;18.690;2022-09-09T13:19:36;98830.00;;;22.12
71081;BMP180;58740;50.672;18.690;2022-09-09T13:22:14;98825.40;;;22.16
71081;BMP180;58740;50.672;18.690;2022-09-09T13:24:42;98820.60;;;22.10
71081;BMP180;58740;50.672;18.690;2022-09-09T13:27:33;98822.20;;;22.10
71081;BMP180;58740;50.672;18.690;2022-09-09T13:30:27;98821.00;;;22.10
71081;BMP180;58740;50.672;18.690;2022-09-09T13:33:20;98810.40;;;22.12
71081;BMP180;58740;50.672;18.690;2022-09-09T13:35:54;98808.20;;;22.18
71081;BMP180;58740;50.672;18.690;2022-09-09T13:38:23;98803.60;;;22.10
71081;BMP180;58740;50.672;18.690;2022-09-09T13:40:57;98799.40;;;22.10
71081;BMP180;58740;50.672;18.690;2022-09-09T13:43:28;98797.20;;;22.04
71081;BMP180;58740;50.672;18.690;2022-09-09T13:46:01;98788.40;;;22.00
71081;BMP180;58740;50.672;18.690;2022-09-09T13:48:30;98796.40;;;22.00
71081;BMP180;58740;50.672;18.690;2022-09-09T13:51:03;98786.60;;;21.92
71081;BMP180;58740;50.672;18.690;2022-09-09T13:53:32;98791.80;;;21.92
71081;BMP180;58740;50.672;18.690;2022-09-09T13:56:00;98790.60;;;22.00
71081;BMP180;58740;50.672;18.690;2022-09-09T13:58:28;98787.60;;;22.00
71081;BMP180;58740;50.672;18.690;2022-09-09T14:00:56;98779.20;;;22.00
71081;BMP180;58740;50.672;18.690;2022-09-09T14:03:24;98776.20;;;22.00
71081;BMP180;58740;50.672;18.690;2022-09-09T14:05:52;98768.00;;;22.00
71081;BMP180;58740;50.672;18.690;2022-09-09T14:08:25;98773.40;;;22.00
71081;BMP180;58740;50.672;18.690;2022-09-09T14:10:53;98778.00;;;21.92
71081;BMP180;58740;50.672;18.690;2022-09-09T14:13:23;98774.20;;;21.90
71081;BMP180;58740;50.672;18.690;2022-09-09T14:15:50;98777.80;;;21.90
71081;BMP180;58740;50.672;18.690;2022-09-09T14:18:18;98779.00;;;21.90
71081;BMP180;58740;50.672;18.690;2022-09-09T14:20:45;98776.00;;;21.90
71081;BMP180;58740;50.672;18.690;2022-09-09T14:23:13;98779.80;;;21.90
71081;BMP180;58740;50.672;18.690;2022-09-09T14:25:43;98780.20;;;21.90
71081;BMP180;58740;50.672;18.690;2022-09-09T14:28:13;98776.80;;;21.90
71081;BMP180;58740;50.672;18.690;2022-09-09T14:30:42;98773.40;;;21.90
71081;BMP180;58740;50.672;18.690;2022-09-09T14:33:15;98772.20;;;21.86
71081;BMP180;58740;50.672;18.690;2022-09-09T14:35:43;98774.60;;;21.86
71081;BMP180;58740;50.672;18.690;2022-09-09T14:38:11;98774.00;;;21.80
71081;BMP180;58740;50.672;18.690;2022-09-09T14:40:45;98772.40;;;21.82
71081;BMP180;58740;50.672;18.690;2022-09-09T14:43:14;98776.40;;;21.82
71081;BMP180;58740;50.672;18.690;2022-09-09T14:45:42;98781.80;;;21.90
71081;BMP180;58740;50.672;18.690;2022-09-09T14:48:11;98781.80;;;21.90
71081;BMP180;58740;50.672;18.690;2022-09-09T14:50:38;98780.20;;;21.90
71081;BMP180;58740;50.672;18.690;2022-09-09T14:53:08;98772.20;;;21.90
71081;BMP180;58740;50.672;18.690;2022-09-09T14:55:37;98773.60;;;21.90
71081;BMP180;58740;50.672;18.690;2022-09-09T14:58:05;98765.60;;;21.94
71081;BMP180;58740;50.672;18.690;2022-09-09T15:00:33;98767.20;;;21.98
71081;BMP180;58740;50.672;18.690;2022-09-09T15:03:01;98763.80;;;22.00
71081;BMP180;58740;50.672;18.690;2022-09-09T15:05:29;98766.80;;;21.96
71081;BMP180;58740;50.672;18.690;2022-09-09T15:07:58;98764.20;;;21.92
71081;BMP180;58740;50.672;18.690;2022-09-09T15:10:26;98769.40;;;21.90
71081;BMP180;58740;50.672;18.690;2022-09-09T15:12:53;98770.60;;;21.90
71081;BMP180;58740;50.672;18.690;2022-09-09T15:15:21;98775.60;;;21.90
71081;BMP180;58740;50.672;18.690;2022-09-09T15:17:49;98771.80;;;21.90
71081;BMP180;58740;50.672;18.690;2022-09-09T15:20:16;98769.40;;;21.90
71081;BMP180;58740;50.672;18.690;2022-09-09T15:22:44;98771.40;;;21.88
71081;BMP180;58740;50.672;18.690;2022-09-09T15:25:11;98764.40;;;21.82
71081;BMP180;58740;50.672;18.690;2022-09-09T15:27:39;98766.00;;;21.80
71081;BMP180;58740;50.672;18.690;2022-09-09T15:30:08;98772.00;;;21.80
71081;BMP180;58740;50.672;18.690;2022-09-09T15:32:36;98770.40;;;21.80
71081;BMP180;58740;50.672;18.690;2022-09-09T15:35:04;98768.80;;;21.78
71081;BMP180;58740;50.672;18.690;2022-09-09T15:37:32;98772.00;;;21.70
71081;BMP180;58740;50.672;18.690;2022-09-09T15:39:59;98773.20;;;21.70
71081;BMP180;58740;50.672;18.690;2022-09-09T15:42:28;98774.60;;;21.70
71081;BMP180;58740;50.672;18.690;2022-09-09T15:44:57;98774.20;;;21.60